Terminal Aerodrome Forecast
Issued by NWS

Home | Current Version | Previous Version | Text Only | Print | Product List | Glossary On
Versions: 1 2 3 4 5 6 7 8 9 10 11 12 13 14 15 16 17 18 19
000
FTUS46 KOTX 232341
TAFMWH
TAF
KMWH 232341Z 2400/2424 30007KT P6SM SKC
     FM241200 05003KT P6SM BKN100
     FM241900 13005KT P6SM OVC050=

USA.gov is the U.S. government's official web portal to all federal, state and local government web resources and services.